GRZ577 Details

Departure: (PADL)
Arrival: (PAKN)
Route: DLG V453 AKN


Current Weather Information
PADL 171656Z 33003KT 10SM SCT028 16/13 A3041 RMK AO2 SLP301 T01560128
PAKN 171654Z 36012KT 10SM SCT060 15/11 A3034 RMK AO2 SLP272 T01500106